Detall de PIREP

Printer-friendly versionPDF version

[2012/10/23 09:27:00]
Flight IATA:CT0001
Pilot Number:041
Company ICAO:CAT
Aircraft Type:A343/E
PAX:104
Departing Airport: LERS
Destination Airport: LEMH
Alternate Airport:LEPA
Online: VATSIM
Route:DCT EBROX B28 BCN H70 SARGO DCT
Flight Level:F140
No Slew and time accel
No pause
Crash detect
Detect pilot in Cockpit between each 30 and 45 minutes
09:27 Zero fuel Weight: 392195 Lbs, Fuel Weight: 23434 Lbs
09:27 VATSIM:LERS 230900Z VRB02KT 9999 FEW030 18/12 Q1019
09:27 VATSIM:LEMH 230900Z 03004KT 340V070 9999 FEW016 FEW020TCU 22/15 Q1018
09:27 VOICE CATALONIAN
09:28 Parking Brakes off
09:33 Take-off
09:33 Take off Weight: 414387 Lbs
09:33 Wind: 347º @ 002 Knots Heading: 069º
09:33 POS N41º 09´ 00´´ E001º 10´ 34´´
09:33 Gear Up: 189 Knots
09:33 Flaps:3 at 189 Knots
09:33 Flaps:2 at 192 Knots
09:33 Flaps:1 at 200 Knots
09:33 Flaps:0 at 227 Knots
09:37 TOC
09:37 Fuel Weight: 19721 Lb
09:48 Wind:242º@003 Knots Heading: 107º Ground Speed: 354 Knots Altitude 14192 ft
10:01 TOD
10:01 Fuel Weight: 14243 Lb
10:03 Wind:049º@004 Knots Heading: 119º Ground Speed: 277 Knots Altitude 10442 ft
10:12 Flaps:1 at 250 Knots
10:12 Flaps:3 at 220 Knots
10:13 Gear Down: 204 Knots
10:13 Flaps:4 at 190 Knots
10:13 Flaps:5 at 177 Knots
10:14 TouchDown:Rate -406 ft/min Speed: 122 Knots
10:14 Flaps:0 at 109 Knots
10:14 VATSIM:LEMH 231000Z 05004KT 330V120 9999 -DZ FEW015 FEW020CB SCT035 24/15 Q1018
10:14 Land
10:14 Wind:049º@004 Knots
10:14 Heading: 202º
10:14 Flight Duration: 00:41
10:14 Landing Weight: 405195 Lbs
10:14 POS N39º 51´ 42´´ E004º 13´ 06´´
10:16 Parking brakes on
10:16 Block to Block Duration: 00:48
10:16 Final Fuel: 12625 Lbls
10:16 Spent Fuel: 10809 Lbls
10:16 Flight Length: 216 NM
10:16 TOD Land Length: 55 NM

Exportar CSV

Powered by Drupal - Modified by Danger4k